Time;durP1;ratioP1;P1;durP2;ratioP2;P2;SDS_P1;SDS_P2;PMS_P1;PMS_P2;Temp;Humidity;BMP_temperature;BMP_pressure;BME280_temperature;BME280_humidity;BME280_pressure;Samples;Min_cycle;Max_cycle;Signal;HPM_P1;HPM_P2
2021/09/20 00:00:45;;;;;;;2.33;2.10;;;14.50;99.90;;;;;;4989248;28;20261;-77
2021/09/20 00:03:14;;;;;;;2.20;2.10;;;14.40;99.90;;;;;;4976721;28;20225;-78
2021/09/20 00:05:41;;;;;;;4.03;2.10;;;14.40;99.90;;;;;;4994147;28;20551;-77
2021/09/20 00:08:08;;;;;;;2.83;2.73;;;14.40;99.90;;;;;;4971871;28;20199;-77
2021/09/20 00:10:35;;;;;;;4.60;4.30;;;14.40;99.90;;;;;;4974304;28;20215;-77
2021/09/20 00:13:01;;;;;;;4.13;3.93;;;14.40;99.90;;;;;;4993851;28;20655;-77
2021/09/20 00:15:28;;;;;;;3.90;3.70;;;14.40;99.90;;;;;;4976371;28;20264;-77
2021/09/20 00:17:55;;;;;;;2.90;2.67;;;14.40;99.90;;;;;;4993545;28;20209;-78
2021/09/20 00:20:23;;;;;;;2.43;2.33;;;14.40;99.90;;;;;;4976320;28;20654;-77
2021/09/20 00:22:52;;;;;;;2.80;2.60;;;14.40;99.90;;;;;;4962317;28;20221;-77
2021/09/20 00:25:19;;;;;;;2.80;2.60;;;14.30;99.90;;;;;;4975062;28;20205;-77
2021/09/20 00:27:46;;;;;;;2.80;2.60;;;14.40;99.90;;;;;;4975936;28;20676;-78
2021/09/20 00:30:13;;;;;;;2.63;2.43;;;14.40;99.90;;;;;;4975878;28;20236;-78
2021/09/20 00:32:40;;;;;;;2.70;2.50;;;14.40;99.90;;;;;;4976061;28;20206;-78
2021/09/20 00:35:08;;;;;;;2.60;2.40;;;14.40;99.90;;;;;;4973176;28;20202;-77
2021/09/20 00:37:36;;;;;;;2.73;2.53;;;14.40;99.90;;;;;;4993132;28;20235;-78
2021/09/20 00:40:05;;;;;;;2.90;2.70;;;14.30;99.90;;;;;;4983704;28;20284;-77
2021/09/20 00:42:32;;;;;;;3.07;2.87;;;14.40;99.90;;;;;;4975861;28;20205;-77
2021/09/20 00:44:59;;;;;;;2.80;2.70;;;14.40;99.90;;;;;;4975852;28;20202;-77
2021/09/20 00:47:25;;;;;;;2.70;2.50;;;14.40;99.90;;;;;;4992526;28;20197;-78
2021/09/20 00:49:52;;;;;;;2.70;2.50;;;14.40;99.90;;;;;;4983601;28;20221;-77
2021/09/20 00:52:19;;;;;;;2.60;2.50;;;14.40;99.90;;;;;;4975501;28;20276;-77
2021/09/20 00:54:50;;;;;;;2.60;2.40;;;14.40;99.90;;;;;;4993100;28;20197;-78
2021/09/20 00:57:17;;;;;;;2.50;2.40;;;14.40;99.90;;;;;;4981236;28;20229;-76
2021/09/20 00:59:44;;;;;;;2.80;2.60;;;14.40;99.90;;;;;;4970099;28;20255;-78
2021/09/20 01:02:11;;;;;;;3.03;2.77;;;14.40;99.90;;;;;;4993029;28;20197;-77
2021/09/20 01:04:38;;;;;;;2.63;2.43;;;14.40;99.90;;;;;;4975429;28;20209;-76
2021/09/20 01:07:05;;;;;;;2.80;2.60;;;14.40;99.90;;;;;;4992578;28;20288;-77
2021/09/20 01:09:32;;;;;;;2.77;2.60;;;14.40;99.90;;;;;;4993556;28;20725;-78
2021/09/20 01:12:01;;;;;;;2.70;2.50;;;14.40;99.90;;;;;;4971878;28;20230;-77
2021/09/20 01:14:27;;;;;;;2.70;2.50;;;14.30;99.90;;;;;;4967298;28;20258;-77
2021/09/20 01:16:54;;;;;;;2.70;2.50;;;14.30;99.90;;;;;;4991377;28;20199;-77
2021/09/20 01:19:21;;;;;;;2.83;2.63;;;14.40;99.90;;;;;;4967343;28;20222;-77
2021/09/20 01:21:48;;;;;;;2.90;2.70;;;14.40;99.90;;;;;;4971766;28;20351;-77
2021/09/20 01:24:16;;;;;;;3.10;2.90;;;14.40;99.90;;;;;;4968077;28;20205;-77
2021/09/20 01:26:43;;;;;;;2.73;2.60;;;14.40;99.90;;;;;;4991689;28;20209;-78
2021/09/20 01:29:10;;;;;;;3.53;2.83;;;14.40;99.90;;;;;;4984301;28;20271;-77
2021/09/20 01:31:37;;;;;;;2.90;2.70;;;14.40;99.90;;;;;;4972784;28;20259;-77
2021/09/20 01:34:04;;;;;;;2.80;2.60;;;14.40;99.90;;;;;;4982980;28;20264;-77
2021/09/20 01:36:30;;;;;;;3.03;2.83;;;14.40;99.90;;;;;;4991717;28;20193;-77
2021/09/20 01:38:57;;;;;;;2.97;2.77;;;14.40;99.90;;;;;;4984645;28;20225;-77
2021/09/20 01:41:25;;;;;;;3.20;2.90;;;14.30;99.90;;;;;;4974719;28;20267;-77
2021/09/20 01:43:52;;;;;;;3.20;3.00;;;14.30;99.90;;;;;;4970675;28;20663;-78
2021/09/20 01:46:19;;;;;;;3.13;2.93;;;14.30;99.90;;;;;;4989684;28;20193;-78
2021/09/20 01:48:46;;;;;;;3.77;3.47;;;14.30;99.90;;;;;;4983967;28;20626;-77
2021/09/20 01:51:13;;;;;;;4.07;3.77;;;14.30;99.90;;;;;;4973822;28;20205;-77
2021/09/20 01:53:40;;;;;;;4.07;3.73;;;14.30;99.90;;;;;;4974640;28;20762;-78
2021/09/20 01:56:07;;;;;;;4.13;3.70;;;14.30;99.90;;;;;;4970472;28;20206;-77
2021/09/20 01:58:35;;;;;;;4.43;4.03;;;14.20;99.90;;;;;;4990702;28;20216;-77
2021/09/20 02:01:02;;;;;;;6.33;5.80;;;14.30;99.90;;;;;;4967083;28;20209;-78
2021/09/20 02:03:29;;;;;;;5.03;4.10;;;14.20;99.90;;;;;;4971276;28;20237;-77
2021/09/20 02:05:55;;;;;;;4.27;3.87;;;14.20;99.90;;;;;;4984853;28;20201;-77
2021/09/20 02:08:24;;;;;;;4.40;4.00;;;14.20;99.90;;;;;;4991621;28;20205;-77
2021/09/20 02:10:51;;;;;;;4.37;3.97;;;14.20;99.90;;;;;;4992295;28;20193;-77
2021/09/20 02:13:17;;;;;;;4.90;4.40;;;14.20;99.90;;;;;;4992067;28;20198;-77
2021/09/20 02:15:46;;;;;;;4.80;4.40;;;14.20;99.90;;;;;;4966735;28;20210;-77
2021/09/20 02:18:12;;;;;;;4.60;4.20;;;14.20;99.90;;;;;;4969240;28;20259;-77
2021/09/20 02:20:39;;;;;;;4.80;4.30;;;14.10;99.90;;;;;;4983884;28;20689;-77
2021/09/20 02:23:06;;;;;;;4.63;4.23;;;14.10;99.90;;;;;;4988273;28;20201;-77
2021/09/20 02:25:33;;;;;;;4.93;4.40;;;14.10;99.90;;;;;;4973356;28;20203;-77
2021/09/20 02:28:00;;;;;;;4.80;4.30;;;14.10;99.90;;;;;;4968157;28;20637;-78
2021/09/20 02:30:26;;;;;;;5.33;4.80;;;14.10;99.90;;;;;;4967821;28;20272;-77
2021/09/20 02:32:55;;;;;;;5.67;5.17;;;14.10;99.90;;;;;;4966839;28;20206;-75
2021/09/20 02:35:21;;;;;;;6.10;5.40;;;14.10;99.90;;;;;;4966855;28;20206;-78
2021/09/20 02:37:48;;;;;;;5.93;5.33;;;14.10;99.90;;;;;;4970774;28;20214;-77
2021/09/20 02:40:15;;;;;;;5.80;5.20;;;14.10;99.90;;;;;;4989046;28;20217;-78
2021/09/20 02:42:42;;;;;;;6.50;5.03;;;14.10;99.90;;;;;;4978638;28;20233;-78
2021/09/20 02:45:10;;;;;;;5.00;4.50;;;14.10;99.90;;;;;;4992713;28;20263;-78
2021/09/20 02:47:38;;;;;;;5.87;5.37;;;14.10;99.90;;;;;;4983316;28;20194;-77
2021/09/20 02:50:08;;;;;;;5.37;4.87;;;14.10;99.90;;;;;;4961363;28;20230;-78
2021/09/20 02:52:35;;;;;;;5.00;4.57;;;14.10;99.90;;;;;;4978045;28;20198;-77
2021/09/20 02:55:02;;;;;;;5.00;4.60;;;14.00;99.90;;;;;;4977855;28;20642;-78
2021/09/20 02:57:29;;;;;;;5.30;4.80;;;14.00;99.90;;;;;;4968596;28;20630;-77
2021/09/20 02:59:56;;;;;;;5.00;4.50;;;14.00;99.90;;;;;;4966578;28;20245;-77
2021/09/20 03:02:22;;;;;;;5.67;5.10;;;14.10;99.90;;;;;;4968081;28;20264;-77
2021/09/20 03:04:49;;;;;;;5.13;4.67;;;14.00;99.90;;;;;;4985374;28;20202;-78
2021/09/20 03:07:17;;;;;;;6.27;5.43;;;14.00;99.90;;;;;;4979926;28;20209;-76
2021/09/20 03:09:44;;;;;;;6.47;5.80;;;14.00;99.90;;;;;;4965856;28;20645;-76
2021/09/20 03:12:11;;;;;;;6.57;5.97;;;14.00;99.90;;;;;;4983535;28;20251;-75
2021/09/20 03:14:39;;;;;;;6.77;6.07;;;14.10;99.90;;;;;;4977435;28;20745;-75
2021/09/20 03:17:06;;;;;;;6.47;5.77;;;14.10;99.90;;;;;;4994795;28;20521;-75
2021/09/20 03:19:32;;;;;;;6.97;6.27;;;14.10;99.90;;;;;;4990283;28;20683;-76
2021/09/20 03:21:59;;;;;;;7.70;6.13;;;14.10;99.90;;;;;;4988509;28;20570;-78
2021/09/20 03:24:28;;;;;;;7.63;6.83;;;14.10;99.90;;;;;;4964155;28;20205;-76
2021/09/20 03:26:55;;;;;;;7.83;6.57;;;14.10;99.90;;;;;;4964713;28;20209;-77
2021/09/20 03:29:22;;;;;;;6.70;5.90;;;14.10;99.90;;;;;;4964622;28;20218;-76
2021/09/20 03:31:48;;;;;;;7.33;6.00;;;14.10;99.90;;;;;;4990520;28;20248;-76
2021/09/20 03:34:15;;;;;;;6.97;6.27;;;14.10;99.90;;;;;;4990835;28;20206;-76
2021/09/20 03:36:42;;;;;;;6.80;6.10;;;14.10;99.90;;;;;;4992772;28;20252;-76
2021/09/20 03:39:09;;;;;;;6.80;6.10;;;14.00;99.90;;;;;;4976799;28;20221;-77
2021/09/20 03:41:37;;;;;;;9.67;8.77;;;14.00;99.90;;;;;;4972886;28;20210;-77
2021/09/20 03:44:05;;;;;;;8.00;7.20;;;13.90;99.90;;;;;;4988437;28;20212;-77
2021/09/20 03:46:32;;;;;;;10.77;9.77;;;13.90;99.90;;;;;;4994420;28;20205;-77
2021/09/20 03:48:59;;;;;;;9.33;8.37;;;14.00;99.90;;;;;;4991240;28;20217;-77
2021/09/20 03:51:26;;;;;;;6.33;5.70;;;13.90;99.90;;;;;;4984694;28;20225;-77
2021/09/20 03:53:53;;;;;;;10.33;9.43;;;13.90;99.90;;;;;;4986264;28;20255;-77
2021/09/20 03:56:19;;;;;;;7.87;7.17;;;13.90;99.90;;;;;;4994548;28;20205;-77
2021/09/20 03:58:48;;;;;;;12.53;11.53;;;13.90;99.90;;;;;;4976085;28;20220;-76
2021/09/20 04:01:14;;;;;;;10.57;9.77;;;13.90;99.90;;;;;;4971748;28;20212;-77
2021/09/20 04:03:41;;;;;;;10.80;9.77;;;13.90;99.90;;;;;;4984970;28;20200;-77
2021/09/20 04:06:08;;;;;;;10.60;9.60;;;13.90;99.90;;;;;;4973241;28;20252;-77
2021/09/20 04:08:35;;;;;;;10.83;9.93;;;13.90;99.90;;;;;;4982177;28;20279;-77
2021/09/20 04:11:02;;;;;;;11.80;10.80;;;13.80;99.90;;;;;;4985986;28;20203;-77
2021/09/20 04:13:28;;;;;;;11.43;10.50;;;13.80;99.90;;;;;;4993615;28;20619;-77
2021/09/20 04:15:58;;;;;;;12.77;11.77;;;13.90;99.90;;;;;;4972909;28;20257;-77
2021/09/20 04:18:26;;;;;;;13.93;12.80;;;13.90;99.90;;;;;;4976244;28;20653;-77
2021/09/20 04:20:54;;;;;;;8.47;7.70;;;13.80;99.90;;;;;;4974901;28;20263;-77
2021/09/20 04:23:22;;;;;;;6.93;6.23;;;13.80;99.90;;;;;;4993263;28;20623;-77
2021/09/20 04:25:50;;;;;;;8.53;7.27;;;13.80;99.90;;;;;;4993242;28;20205;-77
2021/09/20 04:28:18;;;;;;;6.90;6.20;;;13.80;99.90;;;;;;4993312;28;20255;-77
2021/09/20 04:30:45;;;;;;;7.00;6.10;;;13.80;99.90;;;;;;4976061;28;20260;-77
2021/09/20 04:33:15;;;;;;;7.07;6.37;;;13.80;99.90;;;;;;4985519;28;20205;-77
2021/09/20 04:35:42;;;;;;;6.83;6.07;;;13.80;99.90;;;;;;4973859;28;20203;-77
2021/09/20 04:38:10;;;;;;;8.17;7.47;;;13.80;99.90;;;;;;4969619;28;20246;-77
2021/09/20 04:40:38;;;;;;;9.53;8.73;;;13.80;99.90;;;;;;4986308;28;20220;-79
2021/09/20 04:43:05;;;;;;;6.97;6.27;;;13.80;99.90;;;;;;4993969;28;20204;-77
2021/09/20 04:45:32;;;;;;;6.10;5.50;;;13.70;99.90;;;;;;4986209;28;20212;-78
2021/09/20 04:47:59;;;;;;;6.57;5.93;;;13.70;99.90;;;;;;4989563;28;20741;-78
2021/09/20 04:50:27;;;;;;;6.63;5.93;;;13.70;99.90;;;;;;4990906;28;20220;-77
2021/09/20 04:52:54;;;;;;;7.40;6.60;;;13.70;99.90;;;;;;4990968;28;20328;-77
2021/09/20 04:55:21;;;;;;;6.33;5.73;;;13.70;99.90;;;;;;4993961;28;20197;-77
2021/09/20 04:57:48;;;;;;;5.87;5.33;;;13.70;99.90;;;;;;4974268;28;20209;-77
2021/09/20 05:00:15;;;;;;;7.03;6.33;;;13.70;99.90;;;;;;4991627;28;20213;-78
2021/09/20 05:02:42;;;;;;;10.13;9.23;;;13.70;99.90;;;;;;4992400;28;20272;-77
2021/09/20 05:05:11;;;;;;;10.43;9.60;;;13.70;99.90;;;;;;4992950;28;20193;-78
2021/09/20 05:07:39;;;;;;;6.90;6.17;;;13.70;99.90;;;;;;4975662;28;20658;-78
2021/09/20 05:10:07;;;;;;;7.37;6.63;;;13.70;99.90;;;;;;4989418;28;20277;-77
2021/09/20 05:12:33;;;;;;;6.93;6.23;;;13.70;99.90;;;;;;4974617;28;20639;-78
2021/09/20 05:15:00;;;;;;;6.93;6.23;;;13.70;99.90;;;;;;4970146;28;20202;-78
2021/09/20 05:17:27;;;;;;;7.43;6.70;;;13.80;99.90;;;;;;4969471;28;20198;-78
2021/09/20 05:19:54;;;;;;;8.37;7.03;;;13.80;99.90;;;;;;4968001;28;20752;-77
2021/09/20 05:22:21;;;;;;;10.13;9.23;;;13.80;99.90;;;;;;4967888;28;20205;-77
2021/09/20 05:24:49;;;;;;;11.00;10.00;;;13.80;99.90;;;;;;4993498;28;20205;-77
2021/09/20 05:27:16;;;;;;;13.33;12.23;;;13.90;99.90;;;;;;4992996;28;20231;-76
2021/09/20 05:29:44;;;;;;;12.03;11.07;;;13.90;99.90;;;;;;4972882;28;20272;-77
2021/09/20 05:32:11;;;;;;;8.27;7.50;;;13.90;99.90;;;;;;4974478;28;20205;-77
2021/09/20 05:34:38;;;;;;;8.70;7.10;;;14.00;99.90;;;;;;4967549;28;20197;-78
2021/09/20 05:37:05;;;;;;;7.17;6.43;;;14.00;99.90;;;;;;4983707;28;20221;-77
2021/09/20 05:39:33;;;;;;;7.27;6.57;;;14.00;99.90;;;;;;4974138;28;20225;-77
2021/09/20 05:42:01;;;;;;;11.40;10.43;;;14.00;99.90;;;;;;4975536;28;20193;-77
2021/09/20 05:44:28;;;;;;;9.47;8.57;;;14.00;99.90;;;;;;4981862;28;20195;-77
2021/09/20 05:46:54;;;;;;;7.50;6.40;;;14.00;99.90;;;;;;4975168;28;20197;-78
2021/09/20 05:49:21;;;;;;;6.90;6.20;;;14.10;99.90;;;;;;4988608;28;20268;-78
2021/09/20 05:51:48;;;;;;;7.13;6.40;;;14.00;99.90;;;;;;4989015;28;20267;-77
2021/09/20 05:54:15;;;;;;;7.20;6.50;;;14.20;99.90;;;;;;4983006;28;20260;-77
2021/09/20 05:56:42;;;;;;;11.23;10.27;;;14.10;99.90;;;;;;4972712;28;20252;-77
2021/09/20 05:59:10;;;;;;;10.83;9.97;;;14.20;99.90;;;;;;4986728;28;20560;-78
2021/09/20 06:01:37;;;;;;;9.53;8.73;;;14.20;99.90;;;;;;4971241;28;20315;-77
2021/09/20 06:04:04;;;;;;;10.23;9.33;;;14.20;99.90;;;;;;4987567;28;20209;-77
2021/09/20 06:06:30;;;;;;;12.47;11.47;;;14.20;99.90;;;;;;4975931;28;20202;-77
2021/09/20 06:08:57;;;;;;;8.17;6.90;;;14.30;99.90;;;;;;4955367;28;20233;-77
2021/09/20 06:11:24;;;;;;;12.00;11.10;;;14.40;99.90;;;;;;4971361;28;20732;-77
2021/09/20 06:13:51;;;;;;;12.27;11.37;;;14.40;99.90;;;;;;4984630;28;20260;-77
2021/09/20 06:16:19;;;;;;;10.10;9.20;;;14.40;99.90;;;;;;4992134;28;20205;-77
2021/09/20 06:18:46;;;;;;;8.87;8.07;;;14.40;99.90;;;;;;4989801;28;20217;-76
2021/09/20 06:21:13;;;;;;;11.13;10.30;;;14.50;99.90;;;;;;4982822;28;20626;-77
2021/09/20 06:23:39;;;;;;;7.97;7.27;;;14.50;99.90;;;;;;4972592;28;20201;-77
2021/09/20 06:26:06;;;;;;;6.57;5.97;;;14.60;99.90;;;;;;4992477;28;20284;-77
2021/09/20 06:28:33;;;;;;;7.43;6.57;;;14.60;99.90;;;;;;4972048;28;20222;-77
2021/09/20 06:31:02;;;;;;;6.17;5.57;;;14.60;99.90;;;;;;4992163;28;20202;-77
2021/09/20 06:33:31;;;;;;;12.03;11.23;;;14.70;99.90;;;;;;4972463;28;20260;-77
2021/09/20 06:35:58;;;;;;;12.07;11.17;;;14.80;99.90;;;;;;4968810;28;20205;-77
2021/09/20 06:38:25;;;;;;;12.30;11.40;;;14.80;99.90;;;;;;4980634;28;20556;-77
2021/09/20 06:40:52;;;;;;;13.20;12.20;;;14.80;99.90;;;;;;4989737;28;20213;-78
2021/09/20 06:43:19;;;;;;;13.03;12.13;;;14.80;99.90;;;;;;4974765;28;20266;-77
2021/09/20 06:45:46;;;;;;;11.00;10.07;;;14.80;99.90;;;;;;4993067;28;20615;-77
2021/09/20 06:48:13;;;;;;;9.47;8.67;;;14.80;99.90;;;;;;4994385;28;20193;-77
2021/09/20 06:50:42;;;;;;;7.57;6.77;;;14.90;99.90;;;;;;4977284;28;20206;-78
2021/09/20 06:53:08;;;;;;;12.70;11.80;;;15.00;99.90;;;;;;4996361;28;20590;-77
2021/09/20 06:55:35;;;;;;;13.70;12.70;;;15.10;99.90;;;;;;4978623;28;20628;-77
2021/09/20 06:58:03;;;;;;;13.67;12.67;;;15.10;99.90;;;;;;4974490;28;20223;-78
2021/09/20 07:00:31;;;;;;;8.03;6.23;;;15.30;99.90;;;;;;4995153;28;20690;-77
2021/09/20 07:02:57;;;;;;;10.30;9.40;;;15.30;99.90;;;;;;4993641;28;20197;-78
2021/09/20 07:05:24;;;;;;;11.80;10.90;;;15.50;99.90;;;;;;4975080;28;20217;-79
2021/09/20 07:07:53;;;;;;;12.33;11.37;;;15.50;99.90;;;;;;4985636;28;20255;-77
2021/09/20 07:10:19;;;;;;;6.37;5.77;;;15.70;99.90;;;;;;5009195;23;20237;-75
2021/09/20 07:12:47;;;;;;;9.37;8.50;;;15.70;99.90;;;;;;5008803;28;20203;-75
2021/09/20 07:15:16;;;;;;;7.27;6.57;;;15.80;99.90;;;;;;5014007;28;20214;-76
2021/09/20 07:17:42;;;;;;;7.30;6.60;;;15.70;99.90;;;;;;4997162;28;20202;-75
2021/09/20 07:20:11;;;;;;;7.63;6.83;;;15.70;99.90;;;;;;5002722;28;20286;-75
2021/09/20 07:22:38;;;;;;;7.50;6.80;;;15.80;99.90;;;;;;5034665;28;20251;-75
2021/09/20 07:25:08;;;;;;;13.67;12.70;;;15.90;99.90;;;;;;5030006;28;20196;-75
2021/09/20 07:27:35;;;;;;;12.83;11.20;;;15.90;99.90;;;;;;5011183;28;20263;-75
2021/09/20 07:30:01;;;;;;;13.57;12.57;;;16.00;99.90;;;;;;5028395;28;20734;-75
2021/09/20 07:32:28;;;;;;;13.17;11.97;;;16.10;99.90;;;;;;5009947;28;20216;-75
2021/09/20 07:34:55;;;;;;;12.83;11.87;;;16.10;99.90;;;;;;5013226;28;20195;-75
2021/09/20 07:37:22;;;;;;;6.93;6.23;;;16.20;99.90;;;;;;5012897;28;20333;-75
2021/09/20 07:39:48;;;;;;;10.73;9.87;;;16.30;99.90;;;;;;5008490;28;20222;-75
2021/09/20 07:42:17;;;;;;;7.60;6.40;;;16.30;99.90;;;;;;5008275;28;20251;-75
2021/09/20 07:44:43;;;;;;;10.63;9.77;;;16.40;99.90;;;;;;5029316;28;20742;-75
2021/09/20 07:47:10;;;;;;;12.87;11.97;;;16.50;99.90;;;;;;5027825;28;20206;-75
2021/09/20 07:49:39;;;;;;;11.43;10.57;;;16.50;99.90;;;;;;5027555;28;20215;-75
2021/09/20 07:52:06;;;;;;;11.77;10.97;;;16.60;99.90;;;;;;5029529;28;20206;-75
2021/09/20 07:54:32;;;;;;;13.00;12.00;;;16.60;99.90;;;;;;5028508;28;20199;-75
2021/09/20 07:56:59;;;;;;;13.13;12.03;;;16.50;99.90;;;;;;5033428;28;20191;-75
2021/09/20 07:59:28;;;;;;;13.83;12.73;;;16.50;99.90;;;;;;5030264;28;20219;-75
2021/09/20 08:01:54;;;;;;;13.47;12.47;;;16.50;99.90;;;;;;5029665;28;20195;-75
2021/09/20 08:04:21;;;;;;;12.10;11.20;;;16.50;99.90;;;;;;5029213;28;20203;-75
2021/09/20 08:06:48;;;;;;;12.67;11.77;;;16.70;99.90;;;;;;5028838;28;20200;-75
2021/09/20 08:09:15;;;;;;;13.40;12.40;;;16.70;99.90;;;;;;5028984;28;20290;-75
2021/09/20 08:11:41;;;;;;;13.77;12.77;;;16.70;99.90;;;;;;5031258;28;20206;-75
2021/09/20 08:14:08;;;;;;;13.77;12.67;;;16.70;99.90;;;;;;5002224;28;20199;-75
2021/09/20 08:16:36;;;;;;;13.87;12.70;;;16.80;99.90;;;;;;5026071;28;20203;-75
2021/09/20 08:19:03;;;;;;;12.90;12.00;;;16.80;99.90;;;;;;5011922;28;20306;-75
2021/09/20 08:21:30;;;;;;;14.33;13.23;;;16.80;99.90;;;;;;5026617;28;20226;-75
2021/09/20 08:23:57;;;;;;;14.23;13.13;;;16.90;99.90;;;;;;5028552;28;20652;-75
2021/09/20 08:26:24;;;;;;;14.27;13.20;;;16.80;99.90;;;;;;5028558;28;20198;-75
2021/09/20 08:28:50;;;;;;;13.87;12.87;;;16.90;99.90;;;;;;5023597;28;20192;-75
2021/09/20 08:31:17;;;;;;;14.13;13.13;;;17.10;99.90;;;;;;5011169;28;20195;-75
2021/09/20 08:33:45;;;;;;;14.07;12.97;;;17.20;99.90;;;;;;5026962;28;20206;-75
2021/09/20 08:36:12;;;;;;;13.10;11.90;;;17.40;99.90;;;;;;5033015;28;20206;-75
2021/09/20 08:38:39;;;;;;;12.70;11.70;;;17.50;99.90;;;;;;5025323;28;20639;-75
2021/09/20 08:41:07;;;;;;;12.80;11.90;;;17.60;99.90;;;;;;5011673;28;20274;-75
2021/09/20 08:43:34;;;;;;;13.47;12.47;;;17.80;99.90;;;;;;5011136;28;20263;-75
2021/09/20 08:46:04;;;;;;;12.80;12.00;;;17.80;99.90;;;;;;5030983;28;20270;-76
2021/09/20 08:48:36;;;;;;;13.50;12.40;;;17.90;99.90;;;;;;5030182;28;20199;-75
2021/09/20 08:51:05;;;;;;;13.03;12.13;;;17.90;99.90;;;;;;5029158;28;20188;-75
2021/09/20 08:53:32;;;;;;;13.80;12.83;;;18.00;99.90;;;;;;5029005;28;20739;-75
2021/09/20 08:55:59;;;;;;;13.30;12.40;;;18.00;99.90;;;;;;5013547;28;20203;-75
2021/09/20 08:58:26;;;;;;;12.70;11.80;;;18.10;99.90;;;;;;5011472;28;20198;-76
2021/09/20 09:00:54;;;;;;;13.43;12.53;;;18.10;99.90;;;;;;5009824;28;20632;-75
2021/09/20 09:03:21;;;;;;;14.27;13.17;;;18.10;99.90;;;;;;5026516;28;20319;-75
2021/09/20 09:05:49;;;;;;;14.03;13.03;;;18.00;99.90;;;;;;5008599;28;20196;-75
2021/09/20 09:08:18;;;;;;;14.40;13.40;;;17.90;99.90;;;;;;5025583;28;20204;-77
2021/09/20 09:10:47;;;;;;;14.20;13.20;;;17.90;99.90;;;;;;5011376;28;20228;-75
2021/09/20 09:13:15;;;;;;;15.33;14.23;;;18.00;99.90;;;;;;5025422;28;20277;-76
2021/09/20 09:15:48;;;;;;;14.57;13.47;;;18.20;99.90;;;;;;5029352;28;20258;-76
2021/09/20 09:18:14;;;;;;;14.20;13.20;;;18.20;99.90;;;;;;5032126;28;20250;-75
2021/09/20 09:20:42;;;;;;;14.77;13.67;;;18.30;99.90;;;;;;5011287;28;20214;-75
2021/09/20 09:23:11;;;;;;;15.63;14.50;;;18.40;99.90;;;;;;5032312;28;20612;-76
2021/09/20 09:25:41;;;;;;;14.40;13.40;;;18.30;99.90;;;;;;5004419;28;20658;-75
2021/09/20 09:28:15;;;;;;;7.03;6.33;;;18.30;99.90;;;;;;5002612;28;20201;-76
2021/09/20 09:30:43;;;;;;;7.37;6.67;;;18.40;99.90;;;;;;5010507;28;20226;-75
2021/09/20 09:33:13;;;;;;;11.80;11.00;;;18.30;99.90;;;;;;5010201;28;20251;-75
2021/09/20 09:35:44;;;;;;;16.10;14.90;;;18.30;99.90;;;;;;5009707;28;20195;-75
2021/09/20 09:38:11;;;;;;;12.00;11.07;;;18.30;99.90;;;;;;5028322;28;20199;-75
2021/09/20 09:40:49;;;;;;;7.13;6.43;;;18.30;99.90;;;;;;5012609;28;20214;-75
2021/09/20 09:43:23;;;;;;;14.03;12.97;;;18.30;99.90;;;;;;5010013;28;20204;-75
2021/09/20 09:45:50;;;;;;;8.20;7.40;;;18.20;99.90;;;;;;5005874;28;20574;-75
2021/09/20 09:48:20;;;;;;;11.83;10.83;;;18.10;99.90;;;;;;5006370;28;20638;-75
2021/09/20 09:50:49;;;;;;;14.03;13.03;;;18.10;99.90;;;;;;5023889;28;20350;-76
2021/09/20 09:53:28;;;;;;;14.77;13.67;;;18.00;99.90;;;;;;5027958;28;20607;-75
2021/09/20 09:55:58;;;;;;;13.53;12.53;;;17.90;99.90;;;;;;5020042;28;20666;-75
2021/09/20 09:58:26;;;;;;;13.97;12.87;;;18.00;99.90;;;;;;5009245;28;20216;-76
2021/09/20 10:01:15;;;;;;;13.57;12.47;;;18.00;99.90;;;;;;5013425;28;20218;-76
2021/09/20 10:04:06;;;;;;;12.80;11.87;;;18.00;99.90;;;;;;5030669;28;20193;-76
2021/09/20 10:06:51;;;;;;;13.80;12.80;;;18.20;99.90;;;;;;5029901;28;20192;-75
2021/09/20 10:09:20;;;;;;;13.00;12.00;;;18.20;99.90;;;;;;5026945;28;20288;-76
2021/09/20 10:11:50;;;;;;;13.50;12.50;;;18.00;99.90;;;;;;4998825;28;20192;-76
2021/09/20 10:14:19;;;;;;;14.50;13.40;;;18.10;99.90;;;;;;5006511;28;20727;-76
2021/09/20 10:16:49;;;;;;;13.90;12.90;;;18.20;99.90;;;;;;5023356;28;20249;-75
2021/09/20 10:19:17;;;;;;;10.53;9.57;;;18.20;99.90;;;;;;5028514;28;20229;-75
2021/09/20 10:21:44;;;;;;;7.90;7.10;;;18.30;99.90;;;;;;5030435;28;20570;-75
2021/09/20 10:24:11;;;;;;;8.60;7.00;;;18.40;99.90;;;;;;5032154;28;20197;-75
2021/09/20 10:26:37;;;;;;;7.00;6.30;;;18.40;99.90;;;;;;5025888;28;20192;-76
2021/09/20 10:29:07;;;;;;;11.37;10.27;;;18.40;99.90;;;;;;5029482;28;20221;-75
2021/09/20 10:31:35;;;;;;;7.73;6.93;;;18.40;99.90;;;;;;5020477;28;20201;-75
2021/09/20 10:34:28;;;;;;;7.73;7.03;;;18.40;99.90;;;;;;5012753;28;20212;-75
2021/09/20 10:36:59;;;;;;;6.43;5.83;;;18.20;99.90;;;;;;5027912;28;20605;-75
2021/09/20 10:39:46;;;;;;;6.63;5.93;;;18.30;99.90;;;;;;5030582;28;20238;-76
2021/09/20 10:42:56;;;;;;;6.43;5.83;;;18.50;99.90;;;;;;5012438;28;20288;-76
2021/09/20 10:45:55;;;;;;;8.73;7.93;;;18.80;99.90;;;;;;5007526;28;20510;-75
2021/09/20 10:48:51;;;;;;;10.70;7.80;;;18.70;99.90;;;;;;5006893;28;20206;-75
2021/09/20 10:51:23;;;;;;;13.80;12.80;;;18.50;99.90;;;;;;5023186;28;20698;-76
2021/09/20 10:54:12;;;;;;;6.50;5.80;;;18.40;99.90;;;;;;5023482;28;20196;-75
2021/09/20 10:56:39;;;;;;;6.40;5.77;;;18.50;99.90;;;;;;5030989;28;20193;-75
2021/09/20 10:59:18;;;;;;;6.63;6.03;;;18.60;99.90;;;;;;5014917;28;20278;-75
2021/09/20 11:01:56;;;;;;;13.37;12.47;;;18.50;99.90;;;;;;5034314;28;20250;-75
2021/09/20 11:04:28;;;;;;;7.97;7.17;;;18.40;99.90;;;;;;5031298;28;20197;-75
2021/09/20 11:07:15;;;;;;;6.93;6.23;;;18.30;99.90;;;;;;5027237;28;20201;-75
2021/09/20 11:09:48;;;;;;;10.17;9.27;;;18.40;99.90;;;;;;5009756;28;20231;-75
2021/09/20 11:12:18;;;;;;;7.37;5.77;;;18.20;99.90;;;;;;5029918;28;20193;-75
2021/09/20 11:14:49;;;;;;;6.87;6.17;;;18.20;99.90;;;;;;5033673;28;20206;-75
2021/09/20 11:17:25;;;;;;;6.87;6.17;;;18.20;99.90;;;;;;5023448;28;20299;-75
2021/09/20 11:19:54;;;;;;;8.10;6.80;;;18.20;99.90;;;;;;5018685;28;20218;-75
2021/09/20 11:22:23;;;;;;;7.07;6.37;;;18.10;99.90;;;;;;5034305;28;20231;-75
2021/09/20 11:24:52;;;;;;;9.30;8.60;;;18.00;99.90;;;;;;5030016;28;20664;-75
2021/09/20 11:27:25;;;;;;;12.87;11.80;;;18.20;99.90;;;;;;5034401;28;20205;-75
2021/09/20 11:29:54;;;;;;;12.93;11.87;;;18.30;99.90;;;;;;5006381;28;20218;-76
2021/09/20 11:32:22;;;;;;;6.97;6.17;;;18.40;99.90;;;;;;5022183;28;20198;-75
2021/09/20 11:34:52;;;;;;;10.37;9.57;;;18.50;99.90;;;;;;5012557;28;20654;-75
2021/09/20 11:37:22;;;;;;;12.73;11.83;;;18.50;99.90;;;;;;5022852;28;20230;-75
2021/09/20 11:39:51;;;;;;;12.77;11.77;;;18.40;99.90;;;;;;5031539;28;20256;-75
2021/09/20 11:42:20;;;;;;;6.90;5.87;;;18.40;99.90;;;;;;5023517;28;20261;-75
2021/09/20 11:44:50;;;;;;;5.70;5.20;;;18.50;99.90;;;;;;5032196;28;20202;-75
2021/09/20 11:47:18;;;;;;;6.13;5.50;;;18.70;99.90;;;;;;5024860;28;20237;-76
2021/09/20 11:49:48;;;;;;;12.07;11.27;;;18.80;99.90;;;;;;5014946;28;20226;-75
2021/09/20 11:52:15;;;;;;;12.17;11.37;;;18.90;99.90;;;;;;5008760;28;20556;-75
2021/09/20 11:54:48;;;;;;;12.53;11.63;;;19.00;99.90;;;;;;5025990;28;20290;-76
2021/09/20 11:57:21;;;;;;;12.23;11.33;;;19.10;99.90;;;;;;5030246;28;20207;-76
2021/09/20 11:59:49;;;;;;;12.87;11.87;;;19.10;99.90;;;;;;5027265;28;20633;-75
2021/09/20 12:02:35;;;;;;;10.20;9.40;;;19.00;99.90;;;;;;5031057;28;20225;-76
2021/09/20 12:05:06;;;;;;;6.80;6.07;;;19.10;99.90;;;;;;5022769;28;20218;-75
2021/09/20 12:07:34;;;;;;;6.90;5.97;;;19.10;99.90;;;;;;5011703;28;20229;-76
2021/09/20 12:10:03;;;;;;;7.20;6.50;;;19.00;99.90;;;;;;5012061;28;20719;-75
2021/09/20 12:12:31;;;;;;;8.43;5.97;;;19.10;99.90;;;;;;5012288;28;20258;-75
2021/09/20 12:15:01;;;;;;;6.57;5.77;;;18.90;99.90;;;;;;5010095;28;20728;-75
2021/09/20 12:17:54;;;;;;;9.13;8.33;;;18.60;99.90;;;;;;4996652;28;20206;-75
2021/09/20 12:20:25;;;;;;;12.83;11.90;;;18.60;99.90;;;;;;5026285;28;20591;-75
2021/09/20 12:22:53;;;;;;;5.37;4.87;;;18.60;99.90;;;;;;5017900;28;20220;-76
2021/09/20 12:25:37;;;;;;;5.90;5.10;;;18.90;99.90;;;;;;5027885;28;20616;-75
2021/09/20 12:28:05;;;;;;;8.03;5.53;;;19.00;99.90;;;;;;5020184;28;20748;-76
2021/09/20 12:30:34;;;;;;;6.63;5.60;;;19.00;99.90;;;;;;5029729;28;20217;-76
2021/09/20 12:33:10;;;;;;;8.70;6.70;;;19.10;99.90;;;;;;5027318;28;20193;-76
2021/09/20 12:35:39;;;;;;;7.87;6.40;;;18.90;99.90;;;;;;5029329;28;20202;-75
2021/09/20 12:38:31;;;;;;;6.37;5.73;;;18.90;99.90;;;;;;5001028;28;20251;-76
2021/09/20 12:41:01;;;;;;;6.67;5.97;;;19.00;99.90;;;;;;5003684;28;20226;-75
2021/09/20 12:43:32;;;;;;;8.93;7.37;;;19.20;99.90;;;;;;5028044;28;20252;-75
2021/09/20 12:46:10;;;;;;;7.57;6.70;;;19.20;99.90;;;;;;5025532;28;20276;-75
2021/09/20 12:48:38;;;;;;;7.87;7.07;;;19.10;99.90;;;;;;5029417;28;20201;-75